DAL1123 KATL-KBOS
Flight info
| Callsign | DAL1123 |
|---|---|
| Flight time | 1h 49m |
| Altitude | 33000 |
| Route | PLMMR3 BURGG Q22 RBV Q419 JFK ROBUC3 |
| Aircraft | A21N/M-SDE2E3FGHIRWXY/LB1 |
Departure
| Time | 2026-05-01 13:35 |
|---|---|
| Airport | Hartsfield Jackson Atlanta International Airport (KATL) |
Arrival
| Time | 2026-05-01 15:24 |
|---|---|
| Airport | Boston Logan International Airport (KBOS) |
| Time | Latitude | Longitude | Altitude | Speed | Heading |
|---|---|---|---|---|---|
| 2026-05-01 12:50 | 33.63793 | -84.43642 | 1012 ft | 0 kts | 90° |
| 2026-05-01 13:22 | 33.63794 | -84.43666 | 1012 ft | 4 kts | 93° |
| 2026-05-01 13:22 | 33.63797 | -84.43697 | 1012 ft | 4 kts | 108° |
| 2026-05-01 13:22 | 33.63809 | -84.43722 | 1012 ft | 1 kts | 135° |
| 2026-05-01 13:22 | 33.63809 | -84.43723 | 1012 ft | 0 kts | 135° |
| 2026-05-01 13:31 | 33.63808 | -84.43722 | 1012 ft | 1 kts | 135° |
| 2026-05-01 13:31 | 33.63688 | -84.43798 | 1012 ft | 11 kts | 223° |
| 2026-05-01 13:32 | 33.63664 | -84.43999 | 1012 ft | 14 kts | 270° |
| 2026-05-01 13:33 | 33.63663 | -84.44400 | 1012 ft | 17 kts | 270° |
| 2026-05-01 13:33 | 33.63552 | -84.44489 | 1012 ft | 13 kts | 179° |
| 2026-05-01 13:34 | 33.63471 | -84.44415 | 1013 ft | 12 kts | 92° |
| 2026-05-01 13:34 | 33.63472 | -84.43183 | 1011 ft | 136 kts | 90° |
| 2026-05-01 13:35 | 33.63476 | -84.40484 | 1690 ft | 165 kts | 88° |
| 2026-05-01 13:35 | 33.63509 | -84.39088 | 2282 ft | 169 kts | 87° |
| 2026-05-01 13:35 | 33.63537 | -84.36206 | 3288 ft | 189 kts | 92° |
| 2026-05-01 13:36 | 33.63494 | -84.34550 | 3751 ft | 205 kts | 91° |
| 2026-05-01 13:36 | 33.63460 | -84.32779 | 4238 ft | 218 kts | 91° |
| 2026-05-01 13:36 | 33.63395 | -84.28941 | 5257 ft | 247 kts | 91° |
| 2026-05-01 13:37 | 33.63359 | -84.26781 | 5605 ft | 269 kts | 91° |
| 2026-05-01 13:37 | 33.63351 | -84.24464 | 6154 ft | 281 kts | 89° |
| 2026-05-01 13:37 | 33.63365 | -84.22117 | 6877 ft | 286 kts | 89° |
| 2026-05-01 13:37 | 33.63378 | -84.19701 | 7606 ft | 291 kts | 89° |
| 2026-05-01 13:38 | 33.63399 | -84.14751 | 9074 ft | 301 kts | 90° |
| 2026-05-01 13:38 | 33.63445 | -84.12207 | 9702 ft | 309 kts | 84° |
| 2026-05-01 13:38 | 33.63943 | -84.09707 | 10020 ft | 311 kts | 63° |
| 2026-05-01 13:39 | 33.65229 | -84.07582 | 10359 ft | 322 kts | 42° |
| 2026-05-01 13:39 | 33.66913 | -84.05705 | 10652 ft | 340 kts | 39° |
| 2026-05-01 13:39 | 33.68707 | -84.03746 | 10928 ft | 358 kts | 40° |
| 2026-05-01 13:39 | 33.70580 | -84.01648 | 11191 ft | 376 kts | 40° |
| 2026-05-01 13:40 | 33.72520 | -83.99424 | 11453 ft | 393 kts | 41° |
| 2026-05-01 13:40 | 33.74506 | -83.97119 | 11695 ft | 409 kts | 41° |
| 2026-05-01 13:40 | 33.76580 | -83.94699 | 12005 ft | 420 kts | 41° |
| 2026-05-01 13:40 | 33.78690 | -83.92227 | 12487 ft | 424 kts | 41° |
| 2026-05-01 13:41 | 33.80817 | -83.89729 | 13009 ft | 428 kts | 41° |
| 2026-05-01 13:41 | 33.82939 | -83.87236 | 13546 ft | 432 kts | 41° |
| 2026-05-01 13:41 | 33.85114 | -83.84680 | 14051 ft | 435 kts | 41° |
| 2026-05-01 13:41 | 33.87280 | -83.82134 | 14464 ft | 439 kts | 41° |
| 2026-05-01 13:42 | 33.89483 | -83.79541 | 14907 ft | 444 kts | 41° |
| 2026-05-01 13:42 | 33.91707 | -83.76925 | 15383 ft | 449 kts | 40° |
| 2026-05-01 13:42 | 33.93932 | -83.74304 | 15867 ft | 454 kts | 40° |
| 2026-05-01 13:42 | 33.96079 | -83.71440 | 16341 ft | 463 kts | 48° |
| 2026-05-01 13:43 | 33.98028 | -83.68292 | 16807 ft | 469 kts | 49° |
| 2026-05-01 13:43 | 33.99951 | -83.65148 | 17255 ft | 474 kts | 49° |
| 2026-05-01 13:43 | 34.01932 | -83.61908 | 17717 ft | 479 kts | 49° |
| 2026-05-01 13:43 | 34.03907 | -83.58684 | 18156 ft | 484 kts | 49° |
| 2026-05-01 13:44 | 34.05926 | -83.55388 | 18543 ft | 489 kts | 48° |
| 2026-05-01 13:44 | 34.07961 | -83.52068 | 18913 ft | 493 kts | 48° |
| 2026-05-01 13:44 | 34.10010 | -83.48718 | 19294 ft | 497 kts | 48° |
| 2026-05-01 13:44 | 34.12058 | -83.45370 | 19697 ft | 500 kts | 48° |
| 2026-05-01 13:45 | 34.14137 | -83.41964 | 20065 ft | 504 kts | 48° |
| 2026-05-01 13:45 | 34.16210 | -83.38565 | 20434 ft | 508 kts | 48° |
| 2026-05-01 13:45 | 34.18325 | -83.35096 | 20815 ft | 512 kts | 48° |
| 2026-05-01 13:45 | 34.20457 | -83.31599 | 21197 ft | 516 kts | 48° |
| 2026-05-01 13:46 | 34.22591 | -83.28092 | 21619 ft | 520 kts | 48° |
| 2026-05-01 13:46 | 34.24718 | -83.24596 | 22031 ft | 525 kts | 48° |
| 2026-05-01 13:46 | 34.26903 | -83.20993 | 22415 ft | 529 kts | 49° |
| 2026-05-01 13:46 | 34.29090 | -83.17377 | 22816 ft | 533 kts | 48° |
| 2026-05-01 13:47 | 34.31280 | -83.13758 | 23204 ft | 537 kts | 48° |
| 2026-05-01 13:47 | 34.33514 | -83.10095 | 23557 ft | 541 kts | 48° |
| 2026-05-01 13:47 | 34.35768 | -83.06429 | 23868 ft | 544 kts | 48° |
| 2026-05-01 13:47 | 34.38011 | -83.02769 | 24164 ft | 547 kts | 48° |
| 2026-05-01 13:48 | 34.40301 | -82.99023 | 24456 ft | 550 kts | 48° |
| 2026-05-01 13:48 | 34.42583 | -82.95276 | 24788 ft | 551 kts | 48° |
| 2026-05-01 13:48 | 34.44832 | -82.91583 | 25153 ft | 551 kts | 47° |
| 2026-05-01 13:48 | 34.47116 | -82.87831 | 25503 ft | 552 kts | 47° |
| 2026-05-01 13:49 | 34.49412 | -82.84058 | 25886 ft | 552 kts | 47° |
| 2026-05-01 13:49 | 34.51663 | -82.80357 | 26268 ft | 551 kts | 47° |
| 2026-05-01 13:49 | 34.53935 | -82.76612 | 26622 ft | 552 kts | 47° |
| 2026-05-01 13:49 | 34.56218 | -82.72852 | 26983 ft | 552 kts | 47° |
| 2026-05-01 13:50 | 34.58496 | -82.69098 | 27357 ft | 552 kts | 47° |
| 2026-05-01 13:50 | 34.60772 | -82.65341 | 27732 ft | 552 kts | 46° |
| 2026-05-01 13:50 | 34.63027 | -82.61613 | 28094 ft | 552 kts | 46° |
| 2026-05-01 13:50 | 34.65325 | -82.57805 | 28467 ft | 552 kts | 46° |
| 2026-05-01 13:51 | 34.67570 | -82.54073 | 28840 ft | 552 kts | 47° |
| 2026-05-01 13:51 | 34.69807 | -82.50271 | 29183 ft | 553 kts | 47° |
| 2026-05-01 13:51 | 34.71283 | -82.47743 | 29414 ft | 553 kts | 47° |
| 2026-05-01 13:51 | 34.74238 | -82.42682 | 29890 ft | 552 kts | 47° |
| 2026-05-01 13:52 | 34.76480 | -82.38855 | 30222 ft | 551 kts | 46° |
| 2026-05-01 13:52 | 34.78703 | -82.35063 | 30491 ft | 551 kts | 46° |
| 2026-05-01 13:52 | 34.80177 | -82.32546 | 30666 ft | 552 kts | 46° |
| 2026-05-01 13:52 | 34.82403 | -82.28740 | 30913 ft | 552 kts | 46° |
| 2026-05-01 13:53 | 34.84632 | -82.24922 | 31158 ft | 552 kts | 46° |
| 2026-05-01 13:53 | 34.89069 | -82.17295 | 31654 ft | 553 kts | 46° |
| 2026-05-01 13:53 | 34.91291 | -82.13474 | 31888 ft | 553 kts | 46° |
| 2026-05-01 13:54 | 34.93519 | -82.09642 | 32112 ft | 553 kts | 46° |
| 2026-05-01 13:54 | 34.95750 | -82.05803 | 32353 ft | 553 kts | 46° |
| 2026-05-01 13:54 | 34.97959 | -82.02003 | 32576 ft | 553 kts | 46° |
| 2026-05-01 13:54 | 35.00194 | -81.98155 | 32786 ft | 553 kts | 45° |
| 2026-05-01 13:55 | 35.02414 | -81.94319 | 32996 ft | 554 kts | 45° |
| 2026-05-01 13:55 | 35.04690 | -81.90541 | 33117 ft | 550 kts | 43° |
| 2026-05-01 13:55 | 35.09275 | -81.83144 | 33075 ft | 549 kts | 43° |
| 2026-05-01 13:56 | 35.13887 | -81.75702 | 33079 ft | 549 kts | 43° |
| 2026-05-01 13:56 | 35.18507 | -81.68236 | 33092 ft | 549 kts | 43° |
| 2026-05-01 13:57 | 35.23115 | -81.60766 | 33095 ft | 549 kts | 43° |
| 2026-05-01 13:57 | 35.27698 | -81.53327 | 33090 ft | 549 kts | 43° |
| 2026-05-01 13:58 | 35.32301 | -81.45834 | 33087 ft | 550 kts | 43° |
| 2026-05-01 13:58 | 35.36894 | -81.38340 | 33072 ft | 550 kts | 43° |
| 2026-05-01 13:59 | 35.41494 | -81.30819 | 33085 ft | 550 kts | 43° |
| 2026-05-01 13:59 | 35.46072 | -81.23316 | 33096 ft | 551 kts | 43° |
| 2026-05-01 14:00 | 35.50658 | -81.15781 | 33091 ft | 551 kts | 43° |
| 2026-05-01 14:00 | 35.55235 | -81.08251 | 33097 ft | 552 kts | 43° |
| 2026-05-01 14:01 | 35.59810 | -81.00704 | 33086 ft | 552 kts | 43° |
| 2026-05-01 14:01 | 35.64403 | -80.93112 | 33097 ft | 553 kts | 43° |
| 2026-05-01 14:02 | 35.69001 | -80.85494 | 33102 ft | 553 kts | 43° |
| 2026-05-01 14:02 | 35.73587 | -80.77870 | 33095 ft | 558 kts | 43° |
| 2026-05-01 14:03 | 35.78230 | -80.70154 | 33082 ft | 565 kts | 43° |
| 2026-05-01 14:03 | 35.82907 | -80.62364 | 33072 ft | 566 kts | 43° |
| 2026-05-01 14:04 | 35.87590 | -80.54533 | 33068 ft | 566 kts | 43° |
| 2026-05-01 14:04 | 35.92242 | -80.46743 | 33078 ft | 567 kts | 43° |
| 2026-05-01 14:05 | 35.96928 | -80.38878 | 33071 ft | 567 kts | 43° |
| 2026-05-01 14:05 | 36.01597 | -80.31032 | 33071 ft | 567 kts | 43° |
| 2026-05-01 14:06 | 36.06280 | -80.23170 | 33070 ft | 567 kts | 43° |
| 2026-05-01 14:06 | 36.10928 | -80.15333 | 33077 ft | 567 kts | 43° |
| 2026-05-01 14:07 | 36.15580 | -80.07478 | 33081 ft | 568 kts | 43° |
| 2026-05-01 14:08 | 36.22585 | -79.95625 | 33082 ft | 568 kts | 43° |
| 2026-05-01 14:08 | 36.27225 | -79.87743 | 33090 ft | 568 kts | 43° |
| 2026-05-01 14:09 | 36.31885 | -79.79812 | 33098 ft | 568 kts | 43° |
| 2026-05-01 14:09 | 36.36518 | -79.71905 | 33104 ft | 568 kts | 43° |
| 2026-05-01 14:10 | 36.41165 | -79.63961 | 33097 ft | 568 kts | 43° |
| 2026-05-01 14:10 | 36.45792 | -79.56029 | 33098 ft | 568 kts | 43° |
| 2026-05-01 14:11 | 36.50430 | -79.48069 | 33098 ft | 568 kts | 43° |
| 2026-05-01 14:11 | 36.57288 | -79.36241 | 33104 ft | 568 kts | 43° |
| 2026-05-01 14:12 | 36.61907 | -79.28267 | 33103 ft | 568 kts | 43° |
| 2026-05-01 14:12 | 36.66527 | -79.20268 | 33102 ft | 568 kts | 44° |
| 2026-05-01 14:13 | 36.70352 | -79.13631 | 33096 ft | 568 kts | 44° |
| 2026-05-01 14:13 | 36.75704 | -79.04312 | 33085 ft | 568 kts | 44° |
| 2026-05-01 14:14 | 36.80335 | -78.96239 | 33078 ft | 569 kts | 44° |
| 2026-05-01 14:14 | 36.84892 | -78.88255 | 33082 ft | 569 kts | 44° |
| 2026-05-01 14:15 | 36.89467 | -78.80175 | 33087 ft | 569 kts | 44° |
| 2026-05-01 14:15 | 36.94028 | -78.72097 | 33088 ft | 570 kts | 44° |
| 2026-05-01 14:16 | 36.98594 | -78.63997 | 33090 ft | 570 kts | 44° |
| 2026-05-01 14:16 | 37.03155 | -78.55888 | 33087 ft | 570 kts | 44° |
| 2026-05-01 14:17 | 37.07710 | -78.47770 | 33084 ft | 570 kts | 44° |
| 2026-05-01 14:17 | 37.12256 | -78.39647 | 33086 ft | 570 kts | 44° |
| 2026-05-01 14:18 | 37.16804 | -78.31501 | 33080 ft | 570 kts | 44° |
| 2026-05-01 14:18 | 37.20487 | -78.24682 | 33086 ft | 577 kts | 50° |
| 2026-05-01 14:19 | 37.25094 | -78.14370 | 33085 ft | 580 kts | 52° |
| 2026-05-01 14:19 | 37.29010 | -78.05511 | 33085 ft | 580 kts | 52° |
| 2026-05-01 14:20 | 37.34853 | -77.92278 | 33089 ft | 580 kts | 52° |
| 2026-05-01 14:21 | 37.38735 | -77.83477 | 33095 ft | 580 kts | 52° |
| 2026-05-01 14:21 | 37.42630 | -77.74600 | 33103 ft | 579 kts | 52° |
| 2026-05-01 14:22 | 37.48461 | -77.61284 | 33103 ft | 579 kts | 52° |
| 2026-05-01 14:22 | 37.52342 | -77.52387 | 33108 ft | 579 kts | 52° |
| 2026-05-01 14:23 | 37.56214 | -77.43483 | 33093 ft | 579 kts | 52° |
| 2026-05-01 14:23 | 37.60078 | -77.34563 | 33098 ft | 579 kts | 52° |
| 2026-05-01 14:24 | 37.63930 | -77.25654 | 33098 ft | 579 kts | 52° |
| 2026-05-01 14:24 | 37.67993 | -77.16963 | 33085 ft | 565 kts | 42° |
| 2026-05-01 14:25 | 37.70532 | -77.13267 | 33096 ft | 548 kts | 32° |
| 2026-05-01 14:25 | 37.73438 | -77.10320 | 33100 ft | 524 kts | 19° |
| 2026-05-01 14:25 | 37.76548 | -77.08067 | 33111 ft | 511 kts | 13° |
| 2026-05-01 14:25 | 37.79689 | -77.05983 | 33108 ft | 511 kts | 13° |
| 2026-05-01 14:26 | 37.89102 | -76.99572 | 33107 ft | 513 kts | 14° |
| 2026-05-01 14:27 | 37.95328 | -76.95242 | 33105 ft | 514 kts | 14° |
| 2026-05-01 14:27 | 38.01370 | -76.91036 | 33099 ft | 514 kts | 14° |
| 2026-05-01 14:28 | 38.10733 | -76.84504 | 33101 ft | 514 kts | 15° |
| 2026-05-01 14:28 | 38.16996 | -76.80127 | 33088 ft | 514 kts | 15° |
| 2026-05-01 14:29 | 38.23296 | -76.75683 | 33075 ft | 518 kts | 17° |
| 2026-05-01 14:30 | 38.31956 | -76.66894 | 33092 ft | 538 kts | 29° |
| 2026-05-01 14:30 | 38.34827 | -76.63758 | 33087 ft | 537 kts | 29° |
| 2026-05-01 14:31 | 38.40474 | -76.57630 | 33088 ft | 536 kts | 29° |
| 2026-05-01 14:32 | 38.45132 | -76.52598 | 33085 ft | 535 kts | 29° |
| 2026-05-01 14:32 | 38.50828 | -76.46493 | 33088 ft | 534 kts | 29° |
| 2026-05-01 14:33 | 38.56513 | -76.40389 | 33083 ft | 534 kts | 29° |
| 2026-05-01 14:33 | 38.62193 | -76.34269 | 33084 ft | 533 kts | 29° |
| 2026-05-01 14:34 | 38.67857 | -76.28146 | 33080 ft | 533 kts | 30° |
| 2026-05-01 14:34 | 38.73522 | -76.22012 | 33079 ft | 533 kts | 29° |
| 2026-05-01 14:35 | 38.79188 | -76.15871 | 33075 ft | 533 kts | 30° |
| 2026-05-01 14:35 | 38.84843 | -76.09711 | 33075 ft | 533 kts | 30° |
| 2026-05-01 14:36 | 38.90497 | -76.03547 | 33076 ft | 533 kts | 30° |
| 2026-05-01 14:36 | 38.96136 | -75.97352 | 33074 ft | 535 kts | 31° |
| 2026-05-01 14:37 | 39.01637 | -75.90852 | 33070 ft | 537 kts | 32° |
| 2026-05-01 14:37 | 39.07122 | -75.84306 | 33064 ft | 537 kts | 32° |
| 2026-05-01 14:38 | 39.12600 | -75.77773 | 33054 ft | 537 kts | 32° |
| 2026-05-01 14:38 | 39.17152 | -75.72326 | 33053 ft | 537 kts | 32° |
| 2026-05-01 14:39 | 39.22611 | -75.65733 | 33050 ft | 537 kts | 33° |
| 2026-05-01 14:39 | 39.28965 | -75.58088 | 33043 ft | 537 kts | 33° |
| 2026-05-01 14:40 | 39.34427 | -75.51494 | 33049 ft | 537 kts | 33° |
| 2026-05-01 14:40 | 39.39019 | -75.46000 | 33050 ft | 536 kts | 32° |
| 2026-05-01 14:41 | 39.44479 | -75.39421 | 33051 ft | 537 kts | 33° |
| 2026-05-01 14:41 | 39.49482 | -75.33358 | 33052 ft | 536 kts | 33° |
| 2026-05-01 14:42 | 39.54932 | -75.26732 | 33043 ft | 536 kts | 33° |
| 2026-05-01 14:42 | 39.60318 | -75.20130 | 33039 ft | 536 kts | 34° |
| 2026-05-01 14:43 | 39.65787 | -75.13471 | 33041 ft | 535 kts | 33° |
| 2026-05-01 14:43 | 39.71282 | -75.07133 | 33047 ft | 531 kts | 31° |
| 2026-05-01 14:44 | 39.76871 | -75.00853 | 33049 ft | 531 kts | 31° |
| 2026-05-01 14:44 | 39.85233 | -74.91425 | 33043 ft | 530 kts | 32° |
| 2026-05-01 14:45 | 39.93809 | -74.82521 | 33054 ft | 521 kts | 26° |
| 2026-05-01 14:46 | 39.99724 | -74.77096 | 33045 ft | 520 kts | 26° |
| 2026-05-01 14:46 | 40.05351 | -74.71004 | 33045 ft | 536 kts | 39° |
| 2026-05-01 14:46 | 40.07872 | -74.67406 | 33039 ft | 537 kts | 41° |
| 2026-05-01 14:47 | 40.12852 | -74.60156 | 33032 ft | 536 kts | 41° |
| 2026-05-01 14:48 | 40.20377 | -74.49404 | 33024 ft | 530 kts | 37° |
| 2026-05-01 14:48 | 40.28269 | -74.40894 | 33018 ft | 521 kts | 31° |
| 2026-05-01 14:49 | 40.39501 | -74.28896 | 33018 ft | 520 kts | 32° |
| 2026-05-01 14:50 | 40.50328 | -74.17251 | 33002 ft | 519 kts | 33° |
| 2026-05-01 14:51 | 40.56490 | -74.06352 | 33012 ft | 540 kts | 66° |
| 2026-05-01 14:52 | 40.59802 | -73.92203 | 32935 ft | 536 kts | 71° |
| 2026-05-01 14:52 | 40.61961 | -73.82853 | 32341 ft | 532 kts | 70° |
| 2026-05-01 14:53 | 40.63108 | -73.78978 | 32007 ft | 528 kts | 61° |
| 2026-05-01 14:53 | 40.65006 | -73.74753 | 31522 ft | 522 kts | 49° |
| 2026-05-01 14:53 | 40.67331 | -73.71102 | 31075 ft | 517 kts | 43° |
| 2026-05-01 14:53 | 40.69753 | -73.67596 | 30608 ft | 518 kts | 42° |
| 2026-05-01 14:54 | 40.72183 | -73.64082 | 30133 ft | 518 kts | 42° |
| 2026-05-01 14:54 | 40.74565 | -73.60590 | 29647 ft | 519 kts | 43° |
| 2026-05-01 14:54 | 40.77003 | -73.57011 | 29283 ft | 520 kts | 43° |
| 2026-05-01 14:54 | 40.79424 | -73.53454 | 28978 ft | 520 kts | 43° |
| 2026-05-01 14:55 | 40.81845 | -73.49888 | 28570 ft | 520 kts | 43° |
| 2026-05-01 14:55 | 40.84242 | -73.46348 | 27657 ft | 517 kts | 43° |
| 2026-05-01 14:55 | 40.86642 | -73.42806 | 26776 ft | 514 kts | 44° |
| 2026-05-01 14:55 | 40.89027 | -73.39303 | 26345 ft | 516 kts | 43° |
| 2026-05-01 14:56 | 40.91461 | -73.35761 | 26037 ft | 523 kts | 43° |
| 2026-05-01 14:56 | 40.93900 | -73.32184 | 25779 ft | 524 kts | 44° |
| 2026-05-01 14:56 | 40.96327 | -73.28594 | 25519 ft | 524 kts | 44° |
| 2026-05-01 14:56 | 40.98730 | -73.25030 | 25281 ft | 525 kts | 44° |
| 2026-05-01 14:57 | 41.01176 | -73.21400 | 25035 ft | 516 kts | 44° |
| 2026-05-01 14:57 | 41.05829 | -73.14457 | 24543 ft | 502 kts | 44° |
| 2026-05-01 14:57 | 41.08153 | -73.10999 | 24298 ft | 501 kts | 44° |
| 2026-05-01 14:58 | 41.10463 | -73.07549 | 24070 ft | 499 kts | 45° |
| 2026-05-01 14:58 | 41.12762 | -73.04114 | 23834 ft | 497 kts | 44° |
| 2026-05-01 14:58 | 41.15056 | -73.00697 | 23604 ft | 495 kts | 45° |
| 2026-05-01 14:58 | 41.17333 | -72.97298 | 23329 ft | 492 kts | 45° |
| 2026-05-01 14:59 | 41.19594 | -72.93889 | 23048 ft | 492 kts | 46° |
| 2026-05-01 14:59 | 41.21629 | -72.90135 | 22900 ft | 509 kts | 57° |
| 2026-05-01 14:59 | 41.23289 | -72.86028 | 22730 ft | 498 kts | 61° |
| 2026-05-01 14:59 | 41.24814 | -72.82015 | 22472 ft | 491 kts | 61° |
| 2026-05-01 15:00 | 41.28007 | -72.73628 | 22042 ft | 509 kts | 61° |
| 2026-05-01 15:00 | 41.29577 | -72.69488 | 21892 ft | 507 kts | 61° |
| 2026-05-01 15:00 | 41.31163 | -72.65313 | 21748 ft | 505 kts | 61° |
| 2026-05-01 15:01 | 41.32770 | -72.61102 | 21618 ft | 504 kts | 61° |
| 2026-05-01 15:01 | 41.34353 | -72.56934 | 21491 ft | 503 kts | 61° |
| 2026-05-01 15:01 | 41.35896 | -72.52849 | 21362 ft | 501 kts | 61° |
| 2026-05-01 15:01 | 41.37468 | -72.48698 | 21254 ft | 500 kts | 62° |
| 2026-05-01 15:02 | 41.39025 | -72.44574 | 21158 ft | 499 kts | 62° |
| 2026-05-01 15:02 | 41.40080 | -72.41786 | 21078 ft | 498 kts | 62° |
| 2026-05-01 15:02 | 41.42144 | -72.36343 | 20929 ft | 496 kts | 62° |
| 2026-05-01 15:02 | 41.43714 | -72.32179 | 20908 ft | 496 kts | 62° |
| 2026-05-01 15:03 | 41.45241 | -72.28106 | 20924 ft | 496 kts | 62° |
| 2026-05-01 15:03 | 41.46781 | -72.23996 | 20931 ft | 495 kts | 62° |
| 2026-05-01 15:03 | 41.48324 | -72.19874 | 20930 ft | 495 kts | 62° |
| 2026-05-01 15:03 | 41.49837 | -72.15776 | 20245 ft | 490 kts | 62° |
| 2026-05-01 15:04 | 41.51315 | -72.11717 | 19316 ft | 489 kts | 63° |
| 2026-05-01 15:04 | 41.52792 | -72.07658 | 18682 ft | 482 kts | 62° |
| 2026-05-01 15:04 | 41.54259 | -72.03633 | 17779 ft | 475 kts | 63° |
| 2026-05-01 15:04 | 41.55656 | -71.99681 | 16822 ft | 468 kts | 65° |
| 2026-05-01 15:05 | 41.56870 | -71.95682 | 16277 ft | 460 kts | 67° |
| 2026-05-01 15:05 | 41.58063 | -71.91727 | 16024 ft | 459 kts | 67° |
| 2026-05-01 15:05 | 41.59251 | -71.87771 | 15986 ft | 458 kts | 67° |
| 2026-05-01 15:05 | 41.60418 | -71.83864 | 15813 ft | 454 kts | 67° |
| 2026-05-01 15:06 | 41.61557 | -71.80012 | 15426 ft | 439 kts | 67° |
| 2026-05-01 15:06 | 41.62669 | -71.76242 | 15115 ft | 430 kts | 67° |
| 2026-05-01 15:06 | 41.63766 | -71.72513 | 14821 ft | 430 kts | 67° |
| 2026-05-01 15:06 | 41.64855 | -71.68839 | 14447 ft | 427 kts | 67° |
| 2026-05-01 15:07 | 41.65943 | -71.65139 | 14130 ft | 426 kts | 67° |
| 2026-05-01 15:07 | 41.67023 | -71.61446 | 13865 ft | 425 kts | 67° |
| 2026-05-01 15:07 | 41.68103 | -71.57774 | 13589 ft | 418 kts | 67° |
| 2026-05-01 15:07 | 41.69144 | -71.54216 | 13302 ft | 403 kts | 67° |
| 2026-05-01 15:08 | 41.70136 | -71.50814 | 13059 ft | 389 kts | 67° |
| 2026-05-01 15:08 | 41.71108 | -71.47486 | 12835 ft | 375 kts | 67° |
| 2026-05-01 15:08 | 41.72043 | -71.44298 | 12626 ft | 361 kts | 66° |
| 2026-05-01 15:08 | 41.73123 | -71.41367 | 12423 ft | 346 kts | 58° |
| 2026-05-01 15:09 | 41.74298 | -71.38618 | 12242 ft | 334 kts | 57° |
| 2026-05-01 15:09 | 41.75451 | -71.35940 | 12044 ft | 330 kts | 57° |
| 2026-05-01 15:09 | 41.76577 | -71.33317 | 11841 ft | 319 kts | 57° |
| 2026-05-01 15:09 | 41.77683 | -71.30728 | 11639 ft | 319 kts | 57° |
| 2026-05-01 15:10 | 41.78785 | -71.28145 | 11413 ft | 317 kts | 57° |
| 2026-05-01 15:10 | 41.80950 | -71.23082 | 10988 ft | 313 kts | 58° |
| 2026-05-01 15:10 | 41.82031 | -71.20549 | 10962 ft | 313 kts | 58° |
| 2026-05-01 15:11 | 41.83122 | -71.18040 | 10738 ft | 310 kts | 56° |
| 2026-05-01 15:11 | 41.85330 | -71.13091 | 9840 ft | 308 kts | 57° |
| 2026-05-01 15:11 | 41.86411 | -71.10652 | 9400 ft | 305 kts | 57° |
| 2026-05-01 15:12 | 41.87483 | -71.08229 | 8995 ft | 301 kts | 57° |
| 2026-05-01 15:12 | 41.89579 | -71.03481 | 8543 ft | 287 kts | 57° |
| 2026-05-01 15:12 | 41.90586 | -71.01200 | 8394 ft | 280 kts | 57° |
| 2026-05-01 15:13 | 41.93318 | -70.95301 | 7695 ft | 270 kts | 53° |
| 2026-05-01 15:14 | 41.95454 | -70.91171 | 7142 ft | 264 kts | 53° |
| 2026-05-01 15:14 | 41.96491 | -70.89163 | 6989 ft | 261 kts | 53° |
| 2026-05-01 15:14 | 41.98486 | -70.85269 | 6575 ft | 244 kts | 53° |
| 2026-05-01 15:15 | 42.00662 | -70.81951 | 6232 ft | 231 kts | 21° |
| 2026-05-01 15:15 | 42.03662 | -70.81664 | 5332 ft | 214 kts | 335° |
| 2026-05-01 15:16 | 42.06331 | -70.83239 | 4563 ft | 209 kts | 348° |
| 2026-05-01 15:16 | 42.09237 | -70.83380 | 3753 ft | 210 kts | 356° |
| 2026-05-01 15:17 | 42.12173 | -70.83069 | 3018 ft | 206 kts | 356° |
| 2026-05-01 15:18 | 42.16280 | -70.83336 | 2981 ft | 207 kts | 352° |
| 2026-05-01 15:18 | 42.17385 | -70.83458 | 2973 ft | 208 kts | 352° |
| 2026-05-01 15:19 | 42.21684 | -70.83970 | 2983 ft | 207 kts | 352° |
| 2026-05-01 15:19 | 42.24483 | -70.84581 | 2974 ft | 202 kts | 330° |
| 2026-05-01 15:19 | 42.25573 | -70.85658 | 2862 ft | 185 kts | 315° |
| 2026-05-01 15:20 | 42.27249 | -70.88055 | 2424 ft | 169 kts | 312° |
| 2026-05-01 15:20 | 42.28051 | -70.89193 | 2172 ft | 166 kts | 312° |
| 2026-05-01 15:20 | 42.28861 | -70.90298 | 1913 ft | 167 kts | 313° |
| 2026-05-01 15:21 | 42.29686 | -70.91409 | 1677 ft | 164 kts | 314° |
| 2026-05-01 15:21 | 42.30458 | -70.92444 | 1481 ft | 150 kts | 314° |
| 2026-05-01 15:21 | 42.31138 | -70.93355 | 1289 ft | 126 kts | 313° |
| 2026-05-01 15:21 | 42.31551 | -70.93909 | 1151 ft | 125 kts | 313° |
| 2026-05-01 15:22 | 42.32800 | -70.95584 | 801 ft | 126 kts | 314° |
| 2026-05-01 15:22 | 42.33414 | -70.96408 | 623 ft | 125 kts | 313° |
| 2026-05-01 15:22 | 42.34037 | -70.97237 | 444 ft | 123 kts | 313° |
| 2026-05-01 15:23 | 42.34646 | -70.98052 | 332 ft | 125 kts | 313° |
| 2026-05-01 15:23 | 42.35259 | -70.98878 | 121 ft | 123 kts | 312° |
| 2026-05-01 15:23 | 42.35865 | -70.99694 | 33 ft | 117 kts | 312° |
| 2026-05-01 15:23 | 42.36359 | -71.00364 | 30 ft | 76 kts | 316° |
| 2026-05-01 15:24 | 42.36633 | -71.00728 | 31 ft | 42 kts | 316° |
| 2026-05-01 15:24 | 42.36779 | -71.00920 | 31 ft | 11 kts | 309° |
| 2026-05-01 15:24 | 42.36726 | -71.00993 | 31 ft | 14 kts | 199° |
| 2026-05-01 15:24 | 42.36645 | -71.01064 | 31 ft | 15 kts | 247° |
| 2026-05-01 15:25 | 42.36652 | -71.01212 | 31 ft | 17 kts | 261° |
| 2026-05-01 15:25 | 42.36578 | -71.01281 | 31 ft | 11 kts | 216° |
| 2026-05-01 15:25 | 42.36508 | -71.01347 | 31 ft | 13 kts | 211° |
| 2026-05-01 15:25 | 42.36415 | -71.01398 | 31 ft | 15 kts | 199° |
| 2026-05-01 15:26 | 42.36308 | -71.01446 | 31 ft | 17 kts | 199° |
| 2026-05-01 15:26 | 42.36191 | -71.01503 | 31 ft | 19 kts | 200° |
| 2026-05-01 15:26 | 42.36063 | -71.01564 | 31 ft | 20 kts | 199° |
| 2026-05-01 15:26 | 42.35935 | -71.01626 | 31 ft | 12 kts | 199° |
| 2026-05-01 15:27 | 42.35906 | -71.01723 | 31 ft | 13 kts | 279° |
| 2026-05-01 15:27 | 42.35934 | -71.01852 | 31 ft | 15 kts | 300° |
| 2026-05-01 15:27 | 42.35992 | -71.01984 | 31 ft | 17 kts | 300° |
| 2026-05-01 15:28 | 42.36118 | -71.02258 | 31 ft | 14 kts | 324° |
| 2026-05-01 15:28 | 42.36214 | -71.02263 | 31 ft | 15 kts | 21° |
| 2026-05-01 15:28 | 42.36315 | -71.02255 | 31 ft | 15 kts | 313° |
| 2026-05-01 15:29 | 42.36398 | -71.02350 | 31 ft | 0 kts | 328° |
| 2026-05-01 15:31 | 42.36417 | -71.02330 | 31 ft | 11 kts | 113° |
| 2026-05-01 15:32 | 42.36328 | -71.02379 | 31 ft | 4 kts | 286° |
| 2026-05-01 15:32 | 42.36336 | -71.02421 | 31 ft | 1 kts | 290° |
| 2026-05-01 15:33 | 42.36337 | -71.02425 | 31 ft | 0 kts | 289° |